Terminal Aerodrome Forecast
Issued by NWS Cleveland, OH

Home | Current Version | Previous Version | Graphics & Text | Print | Product List | Glossary On
Versions: 1 2 3 4 5 6 7 8 9 10 11 12 13 14 15 16 17 18 19 20 21
000
FTUS41 KCLE 270500
TAFCAK
TAF
KCAK 270532Z 2706/2806 35006KT 4SM -SN OVC015
      TEMPO 2706/2710 2SM -SN BKN009 OVC012
     FM271000 35006KT 4SM -SN OVC015
      TEMPO 2710/2714 2SM -SN BKN009 OVC012
     FM271700 34008KT P6SM OVC025
     FM280400 34005KT P6SM SKC=

USA.gov is the U.S. government's official web portal to all federal, state and local government web resources and services.